Time;durP1;ratioP1;P1;durP2;ratioP2;P2;SDS_P1;SDS_P2;PMS_P1;PMS_P2;Temp;Humidity;BMP_temperature;BMP_pressure;BME280_temperature;BME280_humidity;BME280_pressure;Samples;Min_cycle;Max_cycle;Signal;HPM_P1;HPM_P2
2022/12/11 00:00:32;;;;;;;37.00;22.45;;;;;;;2.89;86.90;97422.81;4196707;28;20207;-84
2022/12/11 00:02:36;;;;;;;34.90;23.15;;;;;;;2.91;87.41;97417.59;4203626;28;20198;-85
2022/12/11 00:04:39;;;;;;;36.53;22.83;;;;;;;2.91;87.41;97420.19;4187874;28;20221;-84
2022/12/11 00:06:42;;;;;;;36.65;22.50;;;;;;;2.93;86.70;97428.66;4199224;28;20225;-84
2022/12/11 00:08:46;;;;;;;38.38;22.25;;;;;;;2.92;86.08;97427.81;4184076;28;20213;-84
2022/12/11 00:10:49;;;;;;;31.27;20.80;;;;;;;2.86;86.65;97428.13;4184352;28;20677;-84
2022/12/11 00:12:52;;;;;;;33.47;21.10;;;;;;;2.84;86.65;97426.53;4182082;28;20553;-84
2022/12/11 00:14:55;;;;;;;33.72;21.02;;;;;;;2.82;86.36;97426.59;4197837;28;20221;-84
2022/12/11 00:17:00;;;;;;;32.00;20.40;;;;;;;2.82;86.52;97423.19;4188113;28;20209;-84
2022/12/11 00:19:03;;;;;;;31.70;20.05;;;;;;;2.81;86.04;97418.94;4190156;28;20317;-84
2022/12/11 00:21:08;;;;;;;33.45;21.13;;;;;;;2.81;86.68;97419.81;4191081;28;20256;-84
2022/12/11 00:23:12;;;;;;;30.85;20.38;;;;;;;2.81;85.84;97421.53;4202913;28;20204;-85
2022/12/11 00:25:15;;;;;;;30.17;19.77;;;;;;;2.77;86.28;97417.44;4178880;28;20202;-84
2022/12/11 00:27:18;;;;;;;33.13;20.23;;;;;;;2.76;86.23;97417.53;4185976;28;20247;-85
2022/12/11 00:29:22;;;;;;;35.55;21.42;;;;;;;2.76;85.92;97414.94;4190140;28;20219;-85
2022/12/11 00:31:25;;;;;;;30.55;20.38;;;;;;;2.75;85.95;97413.28;4195676;28;20223;-85
2022/12/11 00:33:30;;;;;;;32.85;20.25;;;;;;;2.75;86.01;97410.69;4182740;28;20216;-84
2022/12/11 00:35:34;;;;;;;34.88;20.83;;;;;;;2.69;86.20;97404.13;4187803;28;20628;-84
2022/12/11 00:37:37;;;;;;;33.35;19.88;;;;;;;2.71;86.04;97412.59;4186931;28;20202;-84
2022/12/11 00:39:40;;;;;;;31.50;19.88;;;;;;;2.71;86.10;97402.31;4201996;28;20242;-83
2022/12/11 00:41:43;;;;;;;30.63;18.95;;;;;;;2.67;86.02;97407.69;4196532;28;20200;-83
2022/12/11 00:43:46;;;;;;;29.67;18.50;;;;;;;2.69;85.69;97409.28;4200643;28;20208;-83
2022/12/11 00:45:49;;;;;;;29.25;20.00;;;;;;;2.70;85.83;97410.09;4196378;28;20216;-83
2022/12/11 00:47:53;;;;;;;33.80;21.00;;;;;;;2.71;86.41;97414.34;4179285;28;20322;-82
2022/12/11 00:49:57;;;;;;;31.42;20.52;;;;;;;2.70;85.68;97410.94;4198590;28;20272;-82
2022/12/11 00:52:02;;;;;;;31.75;21.08;;;;;;;2.70;85.86;97410.09;4183489;28;20214;-83
2022/12/11 00:54:05;;;;;;;31.85;20.55;;;;;;;2.68;86.18;97406.78;4200246;28;20205;-83
2022/12/11 00:56:10;;;;;;;28.50;19.67;;;;;;;2.67;85.57;97410.25;4183542;28;20241;-82
2022/12/11 00:58:14;;;;;;;31.58;21.10;;;;;;;2.66;85.96;97408.56;4188598;28;20285;-83
2022/12/11 01:00:17;;;;;;;31.65;20.42;;;;;;;2.66;86.19;97404.28;4201430;28;20629;-83
2022/12/11 01:02:20;;;;;;;37.50;22.02;;;;;;;2.67;86.37;97402.53;4202030;28;20209;-83
2022/12/11 01:04:24;;;;;;;32.42;20.20;;;;;;;2.67;85.69;97412.81;4184068;28;21699;-83
2022/12/11 01:06:29;;;;;;;31.98;20.75;;;;;;;2.66;85.90;97414.56;4202732;28;20216;-83
2022/12/11 01:08:32;;;;;;;30.63;19.85;;;;;;;2.67;86.19;97415.41;4184127;28;20201;-82
2022/12/11 01:10:39;;;;;;;27.50;18.15;;;;;;;2.67;85.26;97423.94;4199603;28;20213;-83
2022/12/11 01:12:42;;;;;;;29.95;19.00;;;;;;;2.65;85.11;97423.19;4197997;28;20197;-82
2022/12/11 01:14:45;;;;;;;28.17;18.67;;;;;;;2.63;84.97;97425.00;4182216;28;20218;-83
2022/12/11 01:16:49;;;;;;;30.08;18.88;;;;;;;2.62;85.41;97436.19;4191346;28;20213;-83
2022/12/11 01:18:52;;;;;;;28.67;20.00;;;;;;;2.64;85.15;97434.38;4202924;28;20237;-83
2022/12/11 01:20:55;;;;;;;26.52;17.30;;;;;;;2.66;84.89;97437.72;4183534;28;20584;-83
2022/12/11 01:23:00;;;;;;;30.65;18.67;;;;;;;2.66;84.72;97436.88;4195829;28;20215;-83
2022/12/11 01:25:03;;;;;;;28.45;18.38;;;;;;;2.66;85.06;97437.72;4195772;28;20215;-84
2022/12/11 01:27:07;;;;;;;30.83;19.30;;;;;;;2.66;85.06;97444.59;4185865;28;20232;-84
2022/12/11 01:29:11;;;;;;;28.52;17.70;;;;;;;2.65;84.82;97437.81;4196668;28;20238;-84
2022/12/11 01:31:16;;;;;;;29.38;19.05;;;;;;;2.67;85.27;97443.69;4195264;28;20260;-84
2022/12/11 01:33:19;;;;;;;26.90;18.08;;;;;;;2.66;84.60;97450.59;4184383;28;20205;-82
2022/12/11 01:35:22;;;;;;;27.17;18.10;;;;;;;2.67;84.95;97449.66;4181165;28;20574;-84
2022/12/11 01:37:25;;;;;;;30.38;18.13;;;;;;;2.68;84.31;97447.97;4185268;28;20210;-82
2022/12/11 01:39:29;;;;;;;23.88;16.40;;;;;;;2.69;84.34;97455.59;4187288;28;20232;-84
2022/12/11 01:41:33;;;;;;;21.75;14.75;;;;;;;2.66;84.50;97445.47;4201845;28;20204;-83
2022/12/11 01:43:56;;;;;;;18.50;13.73;;;;;;;2.70;83.77;97451.28;4199417;28;20845;-82
2022/12/11 01:45:59;;;;;;;22.50;14.38;;;;;;;2.70;83.80;97448.72;4195372;28;20217;-83
2022/12/11 01:48:06;;;;;;;19.45;13.20;;;;;;;2.69;83.17;97439.31;4181165;28;20272;-83
2022/12/11 01:50:09;;;;;;;19.80;13.20;;;;;;;2.69;82.69;97447.03;4185802;28;20574;-83
2022/12/11 01:52:16;;;;;;;21.33;13.95;;;;;;;2.67;82.18;97436.81;4193556;28;20669;-83
2022/12/11 01:54:21;;;;;;;18.85;12.82;;;;;;;2.65;81.62;97438.63;4186334;28;20298;-83
2022/12/11 01:56:27;;;;;;;20.88;13.48;;;;;;;2.64;81.40;97442.09;4199166;28;20221;-84
2022/12/11 01:58:32;;;;;;;19.58;12.68;;;;;;;2.62;81.13;97446.50;4193638;28;20237;-83
2022/12/11 02:00:35;;;;;;;19.27;12.05;;;;;;;2.59;81.15;97449.22;4183282;28;20201;-83
2022/12/11 02:02:40;;;;;;;15.25;10.57;;;;;;;2.58;80.86;97449.28;4185643;28;20213;-83
2022/12/11 02:04:44;;;;;;;17.10;10.43;;;;;;;2.56;80.34;97448.53;4194942;28;20252;-83
2022/12/11 02:06:50;;;;;;;12.25;8.70;;;;;;;2.56;79.99;97445.97;4179015;28;20201;-83
2022/12/11 02:09:14;;;;;;;14.05;9.05;;;;;;;2.57;79.47;97456.19;4195262;28;20198;-83
2022/12/11 02:11:21;;;;;;;13.45;9.32;;;;;;;2.58;79.34;97452.69;4197753;28;20292;-83
2022/12/11 02:13:30;;;;;;;20.27;10.98;;;;;;;2.61;79.77;97459.44;4178126;28;20689;-83
2022/12/11 02:15:36;;;;;;;14.00;10.35;;;;;;;2.61;79.79;97452.53;4196272;28;20890;-82
2022/12/11 02:17:42;;;;;;;16.42;10.95;;;;;;;2.62;79.62;97459.38;4186857;28;21730;-83
2022/12/11 02:19:55;;;;;;;14.32;9.60;;;;;;;2.63;79.95;97458.47;4198286;28;20270;-83
2022/12/11 02:22:03;;;;;;;13.10;9.80;;;;;;;2.65;79.76;97461.78;4195056;28;20198;-83
2022/12/11 02:24:18;;;;;;;15.23;10.73;;;;;;;2.68;79.84;97461.66;4198368;28;20659;-84
2022/12/11 02:26:36;;;;;;;18.30;12.10;;;;;;;2.68;80.35;97453.94;4193581;28;20947;-82
2022/12/11 02:28:44;;;;;;;15.50;10.55;;;;;;;2.66;80.51;97450.59;4185317;28;20198;-83
2022/12/11 02:30:51;;;;;;;16.38;10.98;;;;;;;2.68;79.91;97453.94;4195525;28;20213;-82
2022/12/11 02:32:55;;;;;;;15.13;10.13;;;;;;;2.68;80.49;97459.06;4197530;28;20192;-82
2022/12/11 02:35:06;;;;;;;16.23;10.80;;;;;;;2.69;79.25;97453.03;4187209;28;20260;-82
2022/12/11 02:37:14;;;;;;;14.20;10.65;;;;;;;2.71;79.78;97458.94;4197451;28;20304;-83
2022/12/11 02:39:18;;;;;;;15.85;10.02;;;;;;;2.73;79.46;97454.53;4182626;28;20756;-83
2022/12/11 02:41:24;;;;;;;14.77;10.40;;;;;;;2.72;79.41;97449.47;4199051;28;20201;-83
2022/12/11 02:43:28;;;;;;;13.05;10.85;;;;;;;2.73;79.81;97444.22;4201229;28;20308;-83
2022/12/11 02:45:34;;;;;;;16.50;11.60;;;;;;;2.74;79.47;97445.06;4180807;28;20756;-83
2022/12/11 02:47:38;;;;;;;15.93;11.43;;;;;;;2.74;80.48;97437.34;4187447;28;20358;-83
2022/12/11 02:49:44;;;;;;;17.13;12.43;;;;;;;2.73;81.09;97436.50;4201595;28;20229;-83
2022/12/11 02:51:47;;;;;;;18.02;12.55;;;;;;;2.73;80.54;97433.94;4181970;28;20202;-83
2022/12/11 02:53:51;;;;;;;15.63;10.80;;;;;;;2.75;79.47;97433.88;4196081;28;20196;-83
2022/12/11 02:56:04;;;;;;;15.20;10.27;;;;;;;2.76;79.43;97438.13;4198715;28;20214;-83
2022/12/11 02:58:13;;;;;;;15.75;11.80;;;;;;;2.78;79.23;97444.00;4194284;28;20295;-83
2022/12/11 03:00:18;;;;;;;15.35;10.75;;;;;;;2.78;79.62;97449.97;4179857;28;20206;-83
2022/12/11 03:02:22;;;;;;;14.43;10.75;;;;;;;2.78;79.83;97449.97;4184144;28;20685;-83
2022/12/11 03:04:26;;;;;;;16.02;11.45;;;;;;;2.79;79.74;97449.09;4200365;28;20224;-84
2022/12/11 03:06:34;;;;;;;16.17;12.38;;;;;;;2.78;80.51;97444.00;4200701;28;20696;-83
2022/12/11 03:08:38;;;;;;;17.95;12.00;;;;;;;2.79;80.26;97451.66;4186300;28;20232;-83
2022/12/11 03:10:41;;;;;;;17.42;12.00;;;;;;;2.77;80.36;97448.34;4201069;28;20218;-84
2022/12/11 03:12:48;;;;;;;19.65;12.65;;;;;;;2.76;79.97;97451.81;4179413;28;20727;-84
2022/12/11 03:14:57;;;;;;;21.52;13.15;;;;;;;2.75;80.02;97446.72;4188400;28;20303;-83
2022/12/11 03:17:08;;;;;;;17.90;12.57;;;;;;;2.75;80.29;97439.00;4198458;28;20216;-83
2022/12/11 03:19:21;;;;;;;16.30;11.93;;;;;;;2.77;80.01;97438.03;4200278;28;20262;-83
2022/12/11 03:21:28;;;;;;;20.95;13.02;;;;;;;2.76;79.96;97440.69;4194000;28;20235;-83
2022/12/11 03:23:34;;;;;;;20.80;12.82;;;;;;;2.76;79.92;97440.69;4185111;28;20213;-83
2022/12/11 03:25:44;;;;;;;19.17;12.75;;;;;;;2.76;80.31;97430.41;4200282;28;20193;-83
2022/12/11 03:27:52;;;;;;;17.90;12.68;;;;;;;2.77;80.18;97438.03;4182650;28;20205;-84
2022/12/11 03:30:00;;;;;;;19.27;14.73;;;;;;;2.73;80.52;97436.50;4202921;28;20195;-83
2022/12/11 03:32:07;;;;;;;20.88;13.75;;;;;;;2.69;80.27;97424.72;4182252;28;20590;-84
2022/12/11 03:34:16;;;;;;;19.85;13.95;;;;;;;2.55;80.45;97432.25;4185996;28;20206;-83
2022/12/11 03:36:23;;;;;;;19.75;13.90;;;;;;;2.50;80.47;97428.25;4198050;28;20204;-83
2022/12/11 03:38:34;;;;;;;20.88;14.73;;;;;;;2.46;80.99;97430.09;4186370;28;20310;-83
2022/12/11 03:40:40;;;;;;;21.52;13.77;;;;;;;2.47;81.03;97434.34;4187677;28;20196;-83
2022/12/11 03:42:45;;;;;;;18.20;13.80;;;;;;;2.50;80.93;97430.81;4182293;28;20298;-82
2022/12/11 03:44:50;;;;;;;20.15;14.82;;;;;;;2.49;80.96;97439.44;4188382;28;20213;-83
2022/12/11 03:46:55;;;;;;;20.90;14.23;;;;;;;2.46;80.90;97432.69;4186146;28;20204;-83
2022/12/11 03:49:01;;;;;;;18.17;13.60;;;;;;;2.45;80.83;97436.19;4187563;28;20618;-83
2022/12/11 03:51:08;;;;;;;22.85;13.88;;;;;;;2.43;81.15;97434.56;4212342;28;20234;-85
2022/12/11 03:53:11;;;;;;;20.73;14.25;;;;;;;2.44;81.38;97434.50;4193569;28;20229;-83
2022/12/11 03:55:17;;;;;;;19.33;13.45;;;;;;;2.44;81.59;97433.69;4181279;28;20221;-83
2022/12/11 03:57:25;;;;;;;19.88;14.15;;;;;;;2.48;81.99;97433.47;4198676;28;20232;-84
2022/12/11 03:59:29;;;;;;;19.73;13.63;;;;;;;2.50;81.64;97438.53;4181584;28;20202;-83
2022/12/11 04:01:33;;;;;;;23.90;16.02;;;;;;;2.51;81.51;97430.75;4195394;28;20254;-83
2022/12/11 04:03:36;;;;;;;20.27;13.93;;;;;;;2.55;81.21;97444.28;4182091;28;20233;-84
2022/12/11 04:05:41;;;;;;;20.80;15.05;;;;;;;2.57;81.91;97440.75;4194078;28;20673;-84
2022/12/11 04:07:45;;;;;;;19.85;14.15;;;;;;;2.58;81.48;97442.38;4200397;28;20208;-83
2022/12/11 04:09:48;;;;;;;22.60;15.75;;;;;;;2.59;81.44;97446.63;4184378;28;20205;-84
2022/12/11 04:11:52;;;;;;;24.52;16.58;;;;;;;2.62;81.58;97431.06;4183115;28;20210;-83
2022/12/11 04:16:12;;;;;;;22.92;16.23;;;;;;;2.64;81.99;97430.97;4192321;28;20194;-84
2022/12/11 04:25:19;;;;;;;24.05;16.20;;;;;;;2.66;82.40;97437.72;4198090;28;20996;-83
2022/12/11 04:29:43;;;;;;;24.30;16.65;;;;;;;2.66;82.48;97418.88;4199859;28;20288;-83
2022/12/11 04:31:46;;;;;;;26.30;18.20;;;;;;;2.66;82.54;97418.88;4215852;28;20586;-84
2022/12/11 04:33:49;;;;;;;28.00;17.92;;;;;;;2.67;82.95;97423.13;4204827;28;20200;-83
2022/12/11 04:35:52;;;;;;;28.42;17.63;;;;;;;2.64;82.73;97418.94;4204451;28;20235;-82
2022/12/11 04:37:55;;;;;;;29.60;19.10;;;;;;;2.67;83.17;97420.53;4199204;28;20221;-83
2022/12/11 04:40:00;;;;;;;28.92;19.85;;;;;;;2.68;82.77;97423.03;4186395;28;22355;-83
2022/12/11 04:42:03;;;;;;;26.55;18.80;;;;;;;2.70;82.93;97421.22;4205955;28;20235;-83
2022/12/11 04:44:06;;;;;;;28.10;18.95;;;;;;;2.71;83.19;97425.47;4186207;28;20618;-83
2022/12/11 04:46:11;;;;;;;27.73;18.15;;;;;;;2.72;83.23;97423.72;4188077;28;20624;-83
2022/12/11 04:48:14;;;;;;;26.98;19.23;;;;;;;2.73;83.21;97423.66;4196938;28;20895;-84
2022/12/11 04:50:17;;;;;;;26.58;18.88;;;;;;;2.73;83.50;97420.25;4198805;28;20660;-84
2022/12/11 04:52:21;;;;;;;28.38;19.08;;;;;;;2.74;83.14;97414.16;4199564;28;20236;-83
2022/12/11 04:54:24;;;;;;;34.58;20.75;;;;;;;2.76;83.17;97408.06;4188948;28;20206;-84
2022/12/11 04:56:28;;;;;;;29.02;18.42;;;;;;;2.75;83.30;97411.53;4200808;28;20201;-83
2022/12/11 04:58:31;;;;;;;28.20;18.58;;;;;;;2.76;83.39;97408.06;4188231;28;20308;-84
2022/12/11 05:00:34;;;;;;;33.55;20.88;;;;;;;2.73;83.41;97407.38;4212336;28;20598;-84
2022/12/11 05:02:38;;;;;;;28.52;19.00;;;;;;;2.72;83.29;97414.28;4190030;28;20206;-83
2022/12/11 05:04:42;;;;;;;28.35;18.83;;;;;;;2.72;82.99;97406.56;4183103;28;20604;-83
2022/12/11 05:06:45;;;;;;;27.65;18.40;;;;;;;2.73;83.03;97405.63;4182926;28;20615;-84
2022/12/11 05:08:48;;;;;;;27.55;18.60;;;;;;;2.76;83.59;97414.94;4184707;28;20591;-84
2022/12/11 05:10:58;;;;;;;28.60;18.80;;;;;;;2.75;83.89;97408.94;4198189;28;20209;-84
2022/12/11 05:13:02;;;;;;;28.83;18.90;;;;;;;2.77;83.60;97412.31;4206924;28;20665;-83
2022/12/11 05:15:06;;;;;;;29.92;19.70;;;;;;;2.73;83.75;97410.78;4183751;28;20488;-84
2022/12/11 05:17:10;;;;;;;29.38;18.70;;;;;;;2.73;83.15;97412.53;4190973;28;20197;-84
2022/12/11 05:19:13;;;;;;;28.45;18.90;;;;;;;2.73;83.70;97415.94;4186726;28;20222;-84
2022/12/11 05:21:17;;;;;;;27.90;18.90;;;;;;;2.72;83.78;97416.00;4199687;28;20201;-84
2022/12/11 05:23:20;;;;;;;31.27;19.27;;;;;;;2.71;83.41;97417.75;4197876;28;20201;-84
2022/12/11 05:25:23;;;;;;;30.05;18.98;;;;;;;2.72;83.22;97422.00;4188388;28;20210;-84
2022/12/11 05:27:26;;;;;;;29.65;17.92;;;;;;;2.70;83.57;97418.66;4184273;28;20205;-83
2022/12/11 05:29:31;;;;;;;30.52;17.67;;;;;;;2.70;83.81;97421.22;4203386;28;20200;-83
2022/12/11 05:31:34;;;;;;;31.38;19.17;;;;;;;2.69;84.19;97416.16;4188865;28;20219;-83
2022/12/11 05:33:37;;;;;;;26.67;16.85;;;;;;;2.65;83.33;97415.47;4187634;28;20205;-84
2022/12/11 05:35:46;;;;;;;28.98;17.23;;;;;;;2.65;83.61;97410.31;4185815;28;20260;-82
2022/12/11 05:37:49;;;;;;;31.33;18.77;;;;;;;2.66;83.77;97417.16;4201513;28;20222;-83
2022/12/11 05:39:53;;;;;;;26.65;17.45;;;;;;;2.63;83.23;97416.44;4199469;28;20766;-83
2022/12/11 05:41:56;;;;;;;30.30;18.90;;;;;;;2.63;83.50;97419.00;4187980;28;20206;-83
2022/12/11 05:43:59;;;;;;;28.75;18.48;;;;;;;2.63;83.88;97419.88;4198808;28;20204;-83
2022/12/11 05:46:07;;;;;;;28.10;18.77;;;;;;;2.65;83.41;97420.63;4204124;28;20263;-84
2022/12/11 05:48:10;;;;;;;26.92;17.50;;;;;;;2.67;83.62;97417.97;4187097;28;20839;-84
2022/12/11 05:50:14;;;;;;;29.83;18.67;;;;;;;2.65;83.82;97409.50;4200414;28;20202;-84
2022/12/11 05:52:17;;;;;;;29.00;18.98;;;;;;;2.62;83.52;97405.31;4190734;28;20228;-83
2022/12/11 05:54:20;;;;;;;30.67;18.70;;;;;;;2.64;82.92;97402.69;4191436;28;20201;-83
2022/12/11 05:56:25;;;;;;;34.60;21.23;;;;;;;2.61;82.99;97395.09;4181625;28;20251;-83
2022/12/11 05:58:28;;;;;;;30.65;20.10;;;;;;;2.59;83.43;97394.34;4184362;28;20221;-84
2022/12/11 06:00:31;;;;;;;30.20;18.83;;;;;;;2.57;83.16;97388.44;4200601;28;20209;-83
2022/12/11 06:02:40;;;;;;;30.10;20.10;;;;;;;2.52;83.45;97388.66;4190484;28;20223;-84
2022/12/11 06:04:43;;;;;;;33.00;20.05;;;;;;;2.52;83.51;97390.41;4187088;28;20239;-84
2022/12/11 06:06:46;;;;;;;31.23;19.80;;;;;;;2.53;83.49;97390.31;4182943;28;20205;-84
2022/12/11 06:08:50;;;;;;;31.08;19.30;;;;;;;2.55;83.79;97388.50;4187587;28;20229;-83
2022/12/11 06:10:53;;;;;;;32.70;20.17;;;;;;;2.55;83.75;97395.41;4196087;28;20201;-83
2022/12/11 06:12:56;;;;;;;32.45;19.92;;;;;;;2.55;83.93;97382.53;4182708;28;20236;-84
2022/12/11 06:14:59;;;;;;;35.25;20.80;;;;;;;2.57;84.45;97379.00;4180703;28;20655;-83
2022/12/11 06:17:02;;;;;;;33.88;19.98;;;;;;;2.56;84.15;97386.78;4181741;28;20300;-84
2022/12/11 06:19:06;;;;;;;30.17;18.80;;;;;;;2.54;84.03;97386.00;4197909;28;20286;-83
2022/12/11 06:21:13;;;;;;;32.00;19.02;;;;;;;2.54;84.10;97383.44;4187413;28;20220;-84
2022/12/11 06:23:16;;;;;;;31.20;20.02;;;;;;;2.56;84.13;97386.78;4192578;28;20657;-84
2022/12/11 06:25:19;;;;;;;34.97;19.92;;;;;;;2.57;83.60;97388.44;4193318;28;20209;-84
2022/12/11 06:27:22;;;;;;;27.55;18.48;;;;;;;2.56;83.42;97391.94;4204996;28;20215;-83
2022/12/11 06:29:30;;;;;;;29.05;18.40;;;;;;;2.55;83.68;97382.53;4196449;28;20259;-83
2022/12/11 06:31:33;;;;;;;31.88;18.40;;;;;;;2.56;83.29;97391.94;4178107;28;20212;-84
2022/12/11 06:33:37;;;;;;;30.73;18.45;;;;;;;2.55;83.75;97385.09;4195723;28;21406;-83
2022/12/11 06:35:42;;;;;;;33.03;18.48;;;;;;;2.58;83.51;97392.69;4183884;28;20205;-83
2022/12/11 06:37:45;;;;;;;28.08;17.00;;;;;;;2.58;82.67;97390.94;4199923;28;20215;-83
2022/12/11 06:39:48;;;;;;;32.53;17.13;;;;;;;2.55;82.75;97391.06;4201296;28;20258;-84
2022/12/11 06:41:51;;;;;;;23.30;15.82;;;;;;;2.53;82.43;97387.75;4181633;28;20231;-83
2022/12/11 06:43:54;;;;;;;26.23;16.23;;;;;;;2.53;83.03;97382.63;4184583;28;20292;-84
2022/12/11 06:45:58;;;;;;;29.75;16.80;;;;;;;2.53;83.26;97385.19;4187287;28;20305;-84
2022/12/11 06:48:06;;;;;;;31.52;17.60;;;;;;;2.56;83.01;97379.88;4178742;28;20197;-83
2022/12/11 06:50:10;;;;;;;27.67;17.15;;;;;;;2.56;82.95;97382.47;4187795;28;20558;-83
2022/12/11 06:52:15;;;;;;;27.58;16.63;;;;;;;2.57;82.71;97384.13;4197361;28;20583;-84
2022/12/11 06:54:20;;;;;;;30.40;18.55;;;;;;;2.58;83.03;97380.63;4196245;28;20649;-83
2022/12/11 06:56:24;;;;;;;30.90;19.13;;;;;;;2.59;82.78;97379.75;4181646;28;20194;-83
2022/12/11 06:58:30;;;;;;;25.10;16.13;;;;;;;2.61;82.54;97388.22;4187138;28;20220;-84
2022/12/11 07:00:35;;;;;;;28.65;17.60;;;;;;;2.62;83.22;97386.50;4199065;28;20221;-83
2022/12/11 07:02:38;;;;;;;31.25;18.05;;;;;;;2.65;83.04;97396.63;4184515;28;20279;-84
2022/12/11 07:04:41;;;;;;;27.50;17.50;;;;;;;2.62;82.90;97397.59;4185718;28;20252;-84
2022/12/11 07:06:46;;;;;;;28.67;17.10;;;;;;;2.62;83.67;97395.03;4194934;28;20201;-84
2022/12/11 07:08:51;;;;;;;30.08;16.48;;;;;;;2.62;83.19;97399.34;4186484;28;20232;-84
2022/12/11 07:11:02;;;;;;;28.70;15.10;;;;;;;2.62;83.04;97396.78;4198363;28;20205;-84
2022/12/11 07:13:06;;;;;;;24.60;15.00;;;;;;;2.64;82.37;97397.53;4195628;28;20231;-85
2022/12/11 07:15:10;;;;;;;28.88;16.80;;;;;;;2.64;83.06;97393.22;4202508;28;20220;-84
2022/12/11 07:17:14;;;;;;;35.92;19.25;;;;;;;2.63;82.84;97398.44;4206438;28;20635;-83
2022/12/11 07:19:17;;;;;;;30.27;16.38;;;;;;;2.62;82.87;97397.59;4186671;28;20284;-83
2022/12/11 07:21:21;;;;;;;32.42;18.80;;;;;;;2.61;83.48;97403.66;4185660;28;20657;-84
2022/12/11 07:23:24;;;;;;;29.98;18.40;;;;;;;2.62;83.45;97405.31;4188060;28;20267;-84
2022/12/11 07:25:29;;;;;;;29.27;16.77;;;;;;;2.58;83.53;97414.09;4201272;28;20216;-84
2022/12/11 07:27:32;;;;;;;29.33;17.60;;;;;;;2.55;83.69;97406.50;4190145;28;20958;-83
2022/12/11 07:29:35;;;;;;;33.05;18.40;;;;;;;2.51;83.73;97405.00;4195185;28;20202;-84
2022/12/11 07:31:38;;;;;;;31.10;18.65;;;;;;;2.46;84.52;97412.09;4196544;28;20201;-84
2022/12/11 07:33:42;;;;;;;29.98;17.33;;;;;;;2.41;84.16;97406.34;4177672;28;20747;-84
2022/12/11 07:35:45;;;;;;;29.77;17.52;;;;;;;2.33;84.32;97407.63;4178532;28;20252;-84
2022/12/11 07:37:48;;;;;;;31.45;17.15;;;;;;;2.28;84.68;97411.31;4180628;28;20209;-84
2022/12/11 07:39:52;;;;;;;27.73;17.38;;;;;;;2.22;84.90;97401.31;4196259;28;20225;-83
2022/12/11 07:41:56;;;;;;;34.50;19.65;;;;;;;2.24;85.52;97395.22;4190097;28;20559;-84
2022/12/11 07:44:00;;;;;;;35.97;19.17;;;;;;;2.24;85.42;97404.63;4198516;28;20247;-84
2022/12/11 07:46:04;;;;;;;33.83;18.25;;;;;;;2.25;86.04;97401.16;4204053;28;20251;-84
2022/12/11 07:48:07;;;;;;;32.75;19.02;;;;;;;2.24;86.12;97402.06;4195695;28;20197;-84
2022/12/11 07:50:10;;;;;;;35.65;18.95;;;;;;;2.25;86.03;97396.84;4179716;28;20713;-83
2022/12/11 07:52:14;;;;;;;32.30;18.33;;;;;;;2.23;85.84;97388.38;4196592;28;20361;-84
2022/12/11 07:54:19;;;;;;;35.45;19.83;;;;;;;2.21;86.52;97395.34;4178185;28;20288;-83
2022/12/11 07:56:23;;;;;;;27.88;16.60;;;;;;;2.20;86.29;97398.00;4195078;28;20204;-83
2022/12/11 07:58:28;;;;;;;32.75;18.13;;;;;;;2.23;86.76;97400.41;4200998;28;20223;-84
2022/12/11 08:00:31;;;;;;;35.20;18.80;;;;;;;2.30;86.22;97404.34;4200917;28;20235;-85
2022/12/11 08:02:35;;;;;;;36.58;19.65;;;;;;;2.32;86.33;97410.28;4195911;28;20206;-83
2022/12/11 08:04:39;;;;;;;35.92;18.92;;;;;;;2.37;86.12;97407.38;4200911;28;20217;-85
2022/12/11 08:06:43;;;;;;;33.30;19.27;;;;;;;2.43;86.18;97408.84;4201511;28;20561;-84
2022/12/11 08:08:47;;;;;;;33.25;19.77;;;;;;;2.42;85.52;97410.59;4210736;28;20208;-85
2022/12/11 08:10:50;;;;;;;31.83;19.58;;;;;;;2.45;85.44;97417.31;4205619;28;20630;-85
2022/12/11 08:12:54;;;;;;;35.55;20.23;;;;;;;2.44;85.49;97413.91;4193927;28;20201;-82
2022/12/11 08:14:58;;;;;;;35.80;20.25;;;;;;;2.50;86.00;97412.81;4196527;28;20297;-81
2022/12/11 08:17:02;;;;;;;38.40;21.65;;;;;;;2.52;85.76;97411.81;4199531;28;20214;-83
2022/12/11 08:19:05;;;;;;;39.13;20.95;;;;;;;2.58;86.23;97413.25;4189930;28;20206;-82
2022/12/11 08:21:09;;;;;;;42.58;22.67;;;;;;;2.61;85.79;97419.09;4186268;28;20748;-86
2022/12/11 08:23:12;;;;;;;37.95;21.58;;;;;;;2.65;86.17;97410.31;4204884;28;20717;-84
2022/12/11 08:25:15;;;;;;;33.08;19.17;;;;;;;2.72;85.62;97423.72;4190715;28;20233;-84
2022/12/11 08:27:18;;;;;;;38.63;21.17;;;;;;;2.73;85.36;97413.34;4207655;28;20206;-84
2022/12/11 08:29:21;;;;;;;37.28;20.90;;;;;;;2.75;85.49;97406.38;4201726;28;20248;-84
2022/12/11 08:31:26;;;;;;;34.97;19.67;;;;;;;2.82;85.22;97410.31;4198657;28;20244;-84
2022/12/11 08:33:29;;;;;;;32.50;18.02;;;;;;;2.84;85.36;97404.22;4204030;28;20196;-83
2022/12/11 08:35:32;;;;;;;33.95;17.67;;;;;;;2.86;84.97;97409.28;4187140;28;20873;-84
2022/12/11 08:37:35;;;;;;;33.22;20.23;;;;;;;2.90;85.06;97408.19;4202887;28;20255;-83
2022/12/11 08:39:38;;;;;;;35.97;19.10;;;;;;;2.91;85.17;97407.31;4188307;28;20212;-84
2022/12/11 08:41:42;;;;;;;35.25;19.00;;;;;;;2.91;85.43;97405.56;4197674;28;20676;-84
2022/12/11 08:43:45;;;;;;;36.00;19.17;;;;;;;2.92;84.64;97416.72;4198993;28;20197;-84
2022/12/11 08:45:48;;;;;;;36.28;19.90;;;;;;;2.89;84.48;97412.53;4183107;28;20237;-83
2022/12/11 08:47:53;;;;;;;36.42;19.50;;;;;;;2.87;84.80;97413.50;4197506;28;20301;-83
2022/12/11 08:49:56;;;;;;;39.08;19.40;;;;;;;2.88;85.17;97410.03;4203908;28;20205;-83
2022/12/11 08:51:59;;;;;;;31.83;19.00;;;;;;;2.88;85.18;97410.84;4198374;28;20577;-82
2022/12/11 08:54:03;;;;;;;32.95;18.55;;;;;;;2.82;85.06;97410.31;4201874;28;20211;-82
2022/12/11 08:56:08;;;;;;;27.25;16.88;;;;;;;2.79;84.98;97413.06;4194770;28;20543;-85
2022/12/11 08:58:11;;;;;;;35.50;18.17;;;;;;;2.73;84.50;97410.78;4194437;28;20220;-82
2022/12/11 09:00:15;;;;;;;33.55;16.95;;;;;;;2.74;84.63;97416.75;4188096;28;20225;-84
2022/12/11 09:02:18;;;;;;;33.28;17.90;;;;;;;2.70;85.39;97410.94;4193065;28;20259;-82
2022/12/11 09:04:23;;;;;;;35.50;19.60;;;;;;;2.66;85.65;97414.56;4193304;28;20556;-83
2022/12/11 09:06:29;;;;;;;36.72;20.40;;;;;;;2.67;85.98;97410.25;4189143;28;20666;-83
2022/12/11 09:08:33;;;;;;;36.28;20.75;;;;;;;2.67;86.31;97407.69;4181361;28;20210;-82
2022/12/11 09:10:36;;;;;;;31.45;17.92;;;;;;;2.49;86.36;97399.09;4192589;28;20219;-83
2022/12/11 09:12:39;;;;;;;32.30;18.55;;;;;;;2.42;86.52;97400.31;4196959;28;20204;-82
2022/12/11 09:14:42;;;;;;;30.70;18.90;;;;;;;2.31;87.42;97401.72;4198645;28;20661;-82
2022/12/11 09:16:47;;;;;;;42.47;21.73;;;;;;;2.35;87.67;97405.81;4186674;28;20229;-83
2022/12/11 09:18:52;;;;;;;32.65;20.63;;;;;;;2.44;87.50;97410.53;4195512;28;20201;-83
2022/12/11 09:21:00;;;;;;;31.52;17.95;;;;;;;2.37;87.02;97398.84;4197327;28;20258;-82
2022/12/11 09:23:04;;;;;;;36.22;20.75;;;;;;;2.38;87.61;97398.78;4186887;28;20205;-82
2022/12/11 09:25:08;;;;;;;30.80;17.90;;;;;;;2.50;87.53;97405.91;4200289;28;20243;-84
2022/12/11 09:27:11;;;;;;;33.40;18.92;;;;;;;2.60;87.16;97403.72;4202905;28;20216;-82
2022/12/11 09:29:14;;;;;;;34.80;19.23;;;;;;;2.69;87.79;97405.84;4183863;28;20207;-82
2022/12/11 09:31:22;;;;;;;27.70;16.63;;;;;;;2.73;86.61;97405.63;4178987;28;20620;-83
2022/12/11 09:33:25;;;;;;;29.75;16.98;;;;;;;2.78;86.61;97408.81;4183040;28;20198;-83
2022/12/11 09:35:28;;;;;;;28.60;16.02;;;;;;;2.80;86.31;97407.00;4200773;28;20325;-83
2022/12/11 09:37:34;;;;;;;29.90;17.60;;;;;;;2.76;85.77;97413.19;4196569;28;20638;-82
2022/12/11 09:39:37;;;;;;;28.63;17.02;;;;;;;2.75;85.46;97415.84;4195099;28;20205;-82
2022/12/11 09:41:48;;;;;;;26.75;17.35;;;;;;;2.70;85.68;97413.50;4186029;28;20234;-84
2022/12/11 09:43:59;;;;;;;28.63;16.48;;;;;;;2.76;85.94;97409.81;4198589;28;20197;-83
2022/12/11 09:46:05;;;;;;;30.60;17.27;;;;;;;2.79;86.14;97404.50;4182514;28;20296;-83
2022/12/11 09:48:10;;;;;;;32.38;18.83;;;;;;;2.83;85.40;97407.69;4195666;28;20205;-84
2022/12/11 09:50:17;;;;;;;30.48;17.67;;;;;;;2.89;85.72;97401.41;4196794;28;20715;-83